Time;durP1;ratioP1;P1;durP2;ratioP2;P2;SDS_P1;SDS_P2;PMS_P1;PMS_P2;Temp;Humidity;BMP_temperature;BMP_pressure;BME280_temperature;BME280_humidity;BME280_pressure;Samples;Min_cycle;Max_cycle;Signal;HPM_P1;HPM_P2
2021/09/27 00:00:46;;;;;;;6.93;6.38;;;;;;;19.06;72.46;100835.03;5030013;28;20037;-43
2021/09/27 00:03:12;;;;;;;6.90;6.35;;;;;;;19.05;72.75;100858.25;5031910;28;20446;-43
2021/09/27 00:05:38;;;;;;;6.85;6.25;;;;;;;19.05;72.64;100890.34;5034506;28;20036;-43
2021/09/27 00:08:05;;;;;;;6.32;5.82;;;;;;;19.06;72.59;100897.44;5032800;28;20021;-43
2021/09/27 00:10:41;;;;;;;6.40;5.72;;;;;;;19.06;72.58;100908.13;5029438;28;20086;-43
2021/09/27 00:13:08;;;;;;;6.18;5.60;;;;;;;19.06;72.84;100899.19;5032906;28;20060;-44
2021/09/27 00:15:37;;;;;;;6.13;5.63;;;;;;;19.06;73.12;100892.09;5030963;28;20031;-43
2021/09/27 00:18:05;;;;;;;7.15;6.45;;;;;;;19.05;73.33;100901.03;5033895;28;20029;-43
2021/09/27 00:20:31;;;;;;;7.35;6.75;;;;;;;19.05;73.48;100887.66;5032671;28;20407;-43
2021/09/27 00:22:57;;;;;;;8.05;7.30;;;;;;;19.05;73.72;100873.41;5032134;28;20021;-43
2021/09/27 00:25:25;;;;;;;14.85;10.73;;;;;;;19.05;74.04;100852.91;5032934;28;20036;-43
2021/09/27 00:27:50;;;;;;;13.05;11.35;;;;;;;19.04;74.54;100856.50;5027979;28;20026;-43
2021/09/27 00:30:19;;;;;;;10.32;9.20;;;;;;;19.06;75.07;100891.19;5030995;28;20030;-43
2021/09/27 00:32:44;;;;;;;10.35;9.25;;;;;;;19.05;74.76;100916.19;5033690;28;20443;-44
2021/09/27 00:35:12;;;;;;;12.63;11.32;;;;;;;19.05;74.70;100954.47;5032966;28;20108;-43
2021/09/27 00:37:38;;;;;;;12.98;11.60;;;;;;;19.05;74.82;100973.19;5031233;28;20025;-44
2021/09/27 00:40:06;;;;;;;15.05;11.32;;;;;;;19.05;74.67;100986.56;5033271;28;20041;-44
2021/09/27 00:42:32;;;;;;;12.98;10.88;;;;;;;19.05;75.35;100991.91;5032047;28;20060;-44
2021/09/27 00:44:58;;;;;;;17.42;12.02;;;;;;;19.04;74.98;100984.78;5031886;28;20056;-44
2021/09/27 00:47:23;;;;;;;15.63;12.30;;;;;;;19.05;75.53;100986.56;5034610;28;20021;-44
2021/09/27 00:49:49;;;;;;;16.25;11.90;;;;;;;19.04;74.99;100990.13;5032935;28;20017;-44
2021/09/27 00:52:16;;;;;;;14.02;11.48;;;;;;;19.05;74.87;100981.22;5032084;28;20079;-43
2021/09/27 00:54:43;;;;;;;14.18;12.68;;;;;;;19.04;74.87;100981.28;5031776;28;20017;-43
2021/09/27 00:57:21;;;;;;;13.93;11.18;;;;;;;19.03;75.15;100972.38;5030341;28;20041;-44
2021/09/27 00:59:50;;;;;;;14.35;11.13;;;;;;;19.05;75.48;100945.59;5030439;28;20101;-44
2021/09/27 01:02:17;;;;;;;13.70;10.88;;;;;;;19.02;75.33;100933.22;5031950;28;20037;-44
2021/09/27 01:04:43;;;;;;;11.35;10.20;;;;;;;19.03;75.43;100937.63;5030852;28;20365;-43
2021/09/27 01:07:28;;;;;;;12.00;10.77;;;;;;;19.04;75.26;100922.47;5030173;28;20098;-43
2021/09/27 01:09:59;;;;;;;13.02;11.38;;;;;;;19.02;75.47;100917.19;5030882;28;20559;-43
2021/09/27 01:12:34;;;;;;;13.40;11.10;;;;;;;19.01;75.36;100920.78;5030553;28;20033;-43
2021/09/27 01:15:22;;;;;;;13.55;11.00;;;;;;;19.02;75.27;100922.53;5032842;28;20029;-43
2021/09/27 01:18:17;;;;;;;14.02;10.32;;;;;;;19.02;75.33;100930.53;5031041;28;20143;-44
2021/09/27 01:20:51;;;;;;;11.40;10.27;;;;;;;19.00;75.31;100929.72;5030242;28;20503;-44
2021/09/27 01:23:31;;;;;;;12.13;10.50;;;;;;;19.00;75.20;100924.38;5031687;28;20048;-43
2021/09/27 01:26:34;;;;;;;10.70;9.50;;;;;;;19.01;75.10;100922.59;5029299;28;20109;-43
2021/09/27 01:29:18;;;;;;;12.88;9.50;;;;;;;18.99;75.16;100919.97;5032910;28;20029;-43
2021/09/27 01:31:49;;;;;;;10.25;8.38;;;;;;;18.98;74.88;100915.56;5032161;28;20386;-43
2021/09/27 01:35:06;;;;;;;10.90;8.80;;;;;;;18.99;74.76;100917.31;5043758;28;20078;-43
2021/09/27 01:37:56;;;;;;;10.63;8.38;;;;;;;18.98;74.68;100904.88;5010844;28;20045;-43
2021/09/27 01:40:37;;;;;;;9.10;8.27;;;;;;;18.97;74.69;100892.41;5030658;28;20033;-43
2021/09/27 01:43:17;;;;;;;10.20;8.18;;;;;;;18.96;74.53;100896.03;5032507;28;20039;-44
2021/09/27 01:46:00;;;;;;;13.80;9.07;;;;;;;18.96;74.49;100896.91;5040780;28;20123;-43
2021/09/27 01:48:37;;;;;;;10.57;8.60;;;;;;;18.96;74.49;100901.38;5031282;28;20021;-43
2021/09/27 01:51:24;;;;;;;8.52;7.43;;;;;;;18.96;74.43;100898.72;5029721;28;20515;-43
2021/09/27 01:54:09;;;;;;;9.68;8.23;;;;;;;18.94;74.24;100893.44;5029248;28;20394;-43
2021/09/27 01:57:08;;;;;;;8.30;7.35;;;;;;;18.94;74.21;100880.06;5032105;28;20047;-43
2021/09/27 01:59:34;;;;;;;9.85;8.80;;;;;;;18.94;74.10;100882.72;5029805;28;20018;-43
2021/09/27 02:02:26;;;;;;;8.60;7.32;;;;;;;18.95;74.13;100892.50;5030542;28;20035;-43
2021/09/27 02:05:01;;;;;;;10.15;7.55;;;;;;;18.93;74.18;100889.03;5028564;28;20084;-43
2021/09/27 02:07:29;;;;;;;8.32;7.63;;;;;;;18.94;74.10;100887.22;5030140;28;20110;-43
2021/09/27 02:10:11;;;;;;;8.80;7.53;;;;;;;18.92;74.11;100875.72;5027535;28;20025;-43
2021/09/27 02:12:44;;;;;;;7.53;6.72;;;;;;;18.93;74.04;100880.13;5028991;28;20527;-43
2021/09/27 02:15:26;;;;;;;8.27;7.15;;;;;;;18.92;74.07;100871.25;5029494;28;20029;-43
2021/09/27 02:18:15;;;;;;;9.77;7.63;;;;;;;18.91;73.95;100874.84;5028588;28;20053;-43
2021/09/27 02:21:14;;;;;;;7.53;6.70;;;;;;;18.92;73.83;100887.28;5028238;28;20034;-43
2021/09/27 02:23:47;;;;;;;8.07;6.85;;;;;;;18.91;73.91;100882.00;5028574;28;20682;-43
2021/09/27 02:26:14;;;;;;;8.63;7.82;;;;;;;18.91;73.85;100893.53;5032228;28;20052;-43
2021/09/27 02:28:40;;;;;;;8.23;7.00;;;;;;;18.91;73.80;100898.03;5029105;28;20395;-42
2021/09/27 02:31:14;;;;;;;8.38;7.18;;;;;;;18.90;73.74;100898.97;5029750;28;20483;-43
2021/09/27 02:33:43;;;;;;;7.95;7.25;;;;;;;18.90;73.77;100901.66;5030142;28;20026;-43
2021/09/27 02:36:12;;;;;;;7.63;6.68;;;;;;;18.91;73.81;100906.06;5031310;28;20037;-43
2021/09/27 02:39:01;;;;;;;8.57;7.47;;;;;;;18.90;73.87;100907.00;5029311;28;20511;-43
2021/09/27 02:41:48;;;;;;;7.68;6.53;;;;;;;18.90;73.80;100923.03;5032217;28;20041;-43
2021/09/27 02:44:15;;;;;;;7.22;6.53;;;;;;;18.89;73.93;100929.28;5024617;28;20029;-43
2021/09/27 02:46:43;;;;;;;7.95;6.28;;;;;;;18.88;73.73;100928.44;5030387;28;20025;-43
2021/09/27 02:49:12;;;;;;;8.32;6.88;;;;;;;18.89;73.91;100931.94;5028855;28;20082;-43
2021/09/27 02:51:44;;;;;;;9.32;7.65;;;;;;;18.88;73.91;100925.75;5030328;28;20039;-43
2021/09/27 02:54:12;;;;;;;9.60;6.85;;;;;;;18.87;73.79;100921.31;5029454;28;20041;-43
2021/09/27 02:56:58;;;;;;;7.82;6.47;;;;;;;18.88;73.96;100924.88;5031643;28;20093;-43
2021/09/27 02:59:48;;;;;;;7.30;6.60;;;;;;;18.88;73.93;100903.50;5030783;28;20112;-43
2021/09/27 03:02:39;;;;;;;8.55;7.75;;;;;;;18.88;73.89;100895.47;5028525;28;20029;-43
2021/09/27 03:05:18;;;;;;;7.70;7.00;;;;;;;18.87;74.07;100893.75;5030459;28;20638;-43
2021/09/27 03:08:16;;;;;;;8.10;7.30;;;;;;;18.85;73.94;100883.13;5027312;28;20402;-43
2021/09/27 03:11:13;;;;;;;8.48;7.15;;;;;;;18.84;73.77;100882.25;5022862;28;20555;-43
2021/09/27 03:14:25;;;;;;;7.25;6.55;;;;;;;18.85;73.88;100883.13;5027305;28;20029;-43
2021/09/27 03:17:15;;;;;;;8.15;7.30;;;;;;;18.84;73.70;100903.63;5029898;28;20021;-43
2021/09/27 03:19:47;;;;;;;7.10;6.40;;;;;;;18.84;73.78;100908.97;5028526;28;20041;-43
2021/09/27 03:22:16;;;;;;;6.78;6.15;;;;;;;18.84;73.83;100919.66;5030951;28;20581;-43
2021/09/27 03:24:48;;;;;;;7.10;6.38;;;;;;;18.84;73.68;100934.84;5028369;28;20033;-43
2021/09/27 03:27:31;;;;;;;6.95;6.25;;;;;;;18.84;73.62;100937.50;5028988;28;20052;-43
2021/09/27 03:29:59;;;;;;;6.97;6.32;;;;;;;18.83;73.70;100930.41;5029084;28;20045;-42
2021/09/27 03:33:00;;;;;;;7.57;6.68;;;;;;;18.83;73.91;100923.25;5029330;28;20036;-43
2021/09/27 03:35:59;;;;;;;7.43;6.35;;;;;;;18.84;73.80;100921.47;5033932;28;20104;-42
2021/09/27 03:38:44;;;;;;;7.55;6.75;;;;;;;18.82;73.69;100900.16;5031958;28;20025;-42
2021/09/27 03:41:31;;;;;;;7.55;6.85;;;;;;;18.83;74.00;100893.00;5032530;28;20033;-43
2021/09/27 03:44:02;;;;;;;7.57;6.72;;;;;;;18.81;74.01;100892.19;5034133;28;20022;-43
2021/09/27 03:46:55;;;;;;;9.30;7.05;;;;;;;18.81;74.01;100882.38;5035188;28;21423;-42
2021/09/27 03:49:33;;;;;;;7.35;6.65;;;;;;;18.81;73.97;100876.16;5034262;28;20078;-42
2021/09/27 03:52:08;;;;;;;7.38;6.68;;;;;;;18.80;74.06;100877.97;5032757;28;20040;-43
2021/09/27 03:54:40;;;;;;;6.65;6.05;;;;;;;18.79;74.08;100884.25;5032159;28;20116;-42
2021/09/27 03:57:16;;;;;;;7.45;6.75;;;;;;;18.80;74.04;100885.09;5014882;28;20110;-43
2021/09/27 03:59:47;;;;;;;7.70;6.00;;;;;;;18.80;73.76;100885.09;5044516;28;20025;-42
2021/09/27 04:02:23;;;;;;;7.80;6.57;;;;;;;18.79;73.90;100883.38;5034166;28;20040;-42
2021/09/27 04:05:14;;;;;;;6.82;6.13;;;;;;;18.79;73.58;100884.25;5030860;28;20033;-42
2021/09/27 04:07:54;;;;;;;6.65;5.82;;;;;;;18.77;73.69;100870.06;5032644;28;20021;-43
2021/09/27 04:10:29;;;;;;;7.03;6.20;;;;;;;18.77;73.69;100872.72;5031249;28;20036;-43
2021/09/27 04:13:07;;;;;;;6.85;6.15;;;;;;;18.76;73.80;100873.69;5031481;28;20037;-42
2021/09/27 04:15:58;;;;;;;6.28;5.68;;;;;;;18.78;73.65;100874.50;5030065;28;20163;-42
2021/09/27 04:18:30;;;;;;;6.65;6.05;;;;;;;18.77;73.64;100879.91;5026070;28;20033;-43
2021/09/27 04:21:07;;;;;;;6.28;5.78;;;;;;;18.76;73.45;100870.13;5027262;28;20036;-43
2021/09/27 04:24:03;;;;;;;6.80;6.20;;;;;;;18.76;73.67;100867.44;5031125;28;20111;-42
2021/09/27 04:26:50;;;;;;;7.32;6.53;;;;;;;18.75;73.67;100869.28;5030081;28;20438;-42
2021/09/27 04:29:28;;;;;;;6.60;6.07;;;;;;;18.76;73.54;100872.78;5032216;28;20476;-42
2021/09/27 04:32:31;;;;;;;6.30;5.65;;;;;;;18.75;73.70;100874.63;5029622;28;20083;-43
2021/09/27 04:35:10;;;;;;;6.80;6.20;;;;;;;18.75;73.76;100865.72;5030766;28;20025;-42
2021/09/27 04:37:37;;;;;;;7.20;6.55;;;;;;;18.74;73.73;100867.50;5031711;28;20087;-42
2021/09/27 04:40:07;;;;;;;6.85;6.22;;;;;;;18.73;73.71;100873.78;5032609;28;20049;-42
2021/09/27 04:42:56;;;;;;;7.70;6.20;;;;;;;18.74;73.70;100870.19;5032877;28;20041;-42
2021/09/27 04:45:39;;;;;;;6.88;6.18;;;;;;;18.74;73.72;100872.00;5026825;28;20052;-43
2021/09/27 04:48:23;;;;;;;6.63;5.95;;;;;;;18.74;73.66;100874.69;5030850;28;20024;-43
2021/09/27 04:51:11;;;;;;;6.72;6.13;;;;;;;18.73;73.69;100865.78;5033226;28;20108;-43
2021/09/27 04:54:14;;;;;;;6.82;5.78;;;;;;;18.72;73.61;100867.59;5031083;28;20029;-43
2021/09/27 04:57:15;;;;;;;7.38;6.68;;;;;;;18.71;73.56;100865.00;5032312;28;20022;-43
2021/09/27 04:59:59;;;;;;;6.05;5.47;;;;;;;18.71;73.53;100863.16;5013987;28;20045;-43
2021/09/27 05:02:49;;;;;;;6.70;5.95;;;;;;;18.70;73.46;100866.78;5030205;28;20141;-43
2021/09/27 05:05:26;;;;;;;7.50;6.63;;;;;;;18.70;73.51;100866.78;5028357;28;20057;-43
2021/09/27 05:08:16;;;;;;;7.15;6.35;;;;;;;18.70;73.51;100864.09;5028314;28;20033;-43
2021/09/27 05:11:00;;;;;;;6.63;6.03;;;;;;;18.70;73.43;100866.78;5032428;28;20033;-43
2021/09/27 05:13:31;;;;;;;6.13;5.53;;;;;;;18.70;73.55;100863.22;5031367;28;20030;-43
2021/09/27 05:16:12;;;;;;;6.85;6.18;;;;;;;18.68;73.36;100855.28;5026842;28;20032;-43
2021/09/27 05:18:59;;;;;;;6.88;6.18;;;;;;;18.69;73.40;100850.81;5029128;28;20480;-43
2021/09/27 05:21:35;;;;;;;6.97;6.32;;;;;;;18.68;73.47;100852.59;5031454;28;20034;-43
2021/09/27 05:24:09;;;;;;;6.43;5.82;;;;;;;18.68;73.41;100854.41;5030979;28;20017;-43
2021/09/27 05:26:38;;;;;;;7.15;6.45;;;;;;;18.69;73.51;100856.16;5030673;28;20434;-43
2021/09/27 05:29:44;;;;;;;7.15;6.50;;;;;;;18.68;73.67;100857.09;5032015;28;20032;-43
2021/09/27 05:32:47;;;;;;;7.03;6.32;;;;;;;18.68;73.51;100851.75;5030054;28;20506;-43
2021/09/27 05:35:40;;;;;;;6.82;6.10;;;;;;;18.68;73.60;100865.94;5031942;28;20025;-43
2021/09/27 05:38:29;;;;;;;6.43;5.82;;;;;;;18.68;73.60;100862.44;5030045;28;20033;-43
2021/09/27 05:41:04;;;;;;;7.13;6.47;;;;;;;18.67;73.67;100863.38;5028020;28;20033;-43
2021/09/27 05:43:50;;;;;;;6.43;5.93;;;;;;;18.66;73.62;100878.53;5030844;28;20030;-43
2021/09/27 05:46:53;;;;;;;6.80;6.10;;;;;;;18.66;73.53;100870.50;5030068;28;20399;-43
2021/09/27 05:49:27;;;;;;;7.53;6.78;;;;;;;18.65;73.37;100876.78;5028858;28;20095;-43
2021/09/27 05:51:59;;;;;;;7.10;6.40;;;;;;;18.66;73.64;100873.19;5028457;28;20021;-43
2021/09/27 05:55:10;;;;;;;7.70;6.97;;;;;;;18.65;73.48;100867.91;5030042;28;20444;-43
2021/09/27 05:57:58;;;;;;;7.18;6.57;;;;;;;18.64;73.65;100877.69;5005371;28;20515;-43
2021/09/27 06:00:36;;;;;;;7.03;6.32;;;;;;;18.64;73.60;100868.84;5030197;28;20499;-43
2021/09/27 06:05:44;;;;;;;13.38;10.98;;;;;;;18.53;76.74;100854.09;4736011;22;20045;-41
2021/09/27 06:08:12;;;;;;;14.38;11.23;;;;;;;18.54;76.29;100858.50;5043657;28;20024;-41
2021/09/27 06:10:58;;;;;;;12.27;9.85;;;;;;;18.56;75.74;100862.00;5046410;28;20017;-42
2021/09/27 06:13:29;;;;;;;10.60;9.07;;;;;;;18.58;75.53;100856.59;5046262;28;20028;-41
2021/09/27 06:16:21;;;;;;;11.85;10.57;;;;;;;18.59;75.23;100859.22;5046351;28;20049;-42
2021/09/27 06:18:49;;;;;;;11.68;10.48;;;;;;;18.59;75.21;100856.53;5056246;22;20064;-43
2021/09/27 06:21:42;;;;;;;13.32;9.60;;;;;;;18.59;75.29;100856.53;5050332;28;20100;-44
2021/09/27 06:24:33;;;;;;;13.75;10.25;;;;;;;18.61;75.20;100852.94;5043519;28;20020;-42
2021/09/27 06:27:22;;;;;;;10.82;9.73;;;;;;;18.59;74.79;100853.88;5042968;28;20032;-42
2021/09/27 06:30:09;;;;;;;11.57;10.10;;;;;;;18.59;74.86;100845.84;5043576;28;20026;-42
2021/09/27 06:32:50;;;;;;;10.55;9.45;;;;;;;18.59;74.87;100858.31;5042157;28;20033;-43
2021/09/27 06:35:19;;;;;;;11.85;9.30;;;;;;;18.59;74.76;100863.66;5046177;28;20105;-42
2021/09/27 06:37:44;;;;;;;10.18;9.18;;;;;;;18.58;74.69;100870.78;5042160;28;20044;-44
2021/09/27 06:40:11;;;;;;;9.68;8.60;;;;;;;18.58;74.53;100881.47;5044418;28;20482;-42
2021/09/27 06:42:36;;;;;;;10.00;8.70;;;;;;;18.58;74.57;100881.47;5042860;28;20028;-42
2021/09/27 06:45:03;;;;;;;10.48;8.43;;;;;;;18.59;74.45;100887.69;5045687;28;20463;-42
2021/09/27 06:47:28;;;;;;;9.68;8.68;;;;;;;18.58;74.39;100877.97;5044327;28;20036;-42
2021/09/27 06:49:54;;;;;;;11.43;9.05;;;;;;;18.56;74.38;100888.69;5043697;28;20024;-42
2021/09/27 06:52:19;;;;;;;12.27;8.77;;;;;;;18.57;74.48;100895.78;5044969;28;20399;-42
2021/09/27 06:54:44;;;;;;;9.90;8.40;;;;;;;18.57;74.42;100897.56;5041078;28;20510;-41
2021/09/27 06:57:10;;;;;;;9.30;8.27;;;;;;;18.57;74.47;100894.88;5046097;28;20044;-41
2021/09/27 06:59:36;;;;;;;9.43;8.52;;;;;;;18.57;74.28;100898.44;5043855;28;20483;-42
2021/09/27 07:02:01;;;;;;;9.38;8.48;;;;;;;18.57;74.21;100900.22;5040269;28;20026;-42
2021/09/27 07:04:27;;;;;;;10.23;8.50;;;;;;;18.56;74.42;100888.69;5037213;28;20163;-42
2021/09/27 07:06:52;;;;;;;10.63;8.63;;;;;;;18.56;74.43;100883.34;5042326;28;20100;-42
2021/09/27 07:09:17;;;;;;;9.07;8.18;;;;;;;18.56;74.39;100886.03;5044883;28;20456;-42
2021/09/27 07:11:45;;;;;;;9.57;8.07;;;;;;;18.55;74.28;100886.97;5039935;28;20029;-42
2021/09/27 07:14:10;;;;;;;9.95;8.95;;;;;;;18.55;74.37;100886.97;5040429;28;20028;-42
2021/09/27 07:16:37;;;;;;;9.65;8.65;;;;;;;18.56;74.50;100887.81;5024616;28;20035;-42
2021/09/27 07:19:07;;;;;;;9.05;8.15;;;;;;;18.56;74.29;100894.03;5038731;28;20025;-43
2021/09/27 07:21:35;;;;;;;10.45;8.88;;;;;;;18.56;74.33;100899.38;5042089;28;20046;-43
2021/09/27 07:24:01;;;;;;;9.52;8.57;;;;;;;18.55;74.29;100902.13;5040971;28;20021;-43
2021/09/27 07:26:27;;;;;;;9.40;8.35;;;;;;;18.55;74.39;100903.00;5037371;28;20036;-43
2021/09/27 07:28:56;;;;;;;11.07;9.57;;;;;;;18.55;74.44;100896.78;5040292;28;20025;-43
2021/09/27 07:31:24;;;;;;;10.85;8.70;;;;;;;18.55;74.29;100894.09;5044329;28;20040;-41
2021/09/27 07:33:50;;;;;;;9.52;8.55;;;;;;;18.54;74.41;100895.88;5034688;28;20166;-41
2021/09/27 07:36:16;;;;;;;10.13;8.30;;;;;;;18.54;74.42;100887.88;5045700;28;20539;-41
2021/09/27 07:38:41;;;;;;;9.60;8.60;;;;;;;18.54;74.24;100895.88;5044983;28;20028;-41
2021/09/27 07:41:06;;;;;;;8.90;8.00;;;;;;;18.54;74.39;100885.22;5044597;28;20028;-43
2021/09/27 07:43:32;;;;;;;9.07;8.18;;;;;;;18.54;74.34;100893.22;5036689;28;20016;-42
2021/09/27 07:45:57;;;;;;;9.25;8.25;;;;;;;18.54;74.08;100893.22;5034184;28;20021;-42
2021/09/27 07:48:22;;;;;;;9.25;8.35;;;;;;;18.54;74.25;100889.69;5039772;28;20116;-42
2021/09/27 07:50:50;;;;;;;8.30;7.50;;;;;;;18.53;74.36;100890.59;5037287;28;20112;-41
2021/09/27 07:53:16;;;;;;;10.52;8.90;;;;;;;18.53;74.45;100894.16;5044433;28;20021;-42
2021/09/27 07:55:42;;;;;;;8.98;8.07;;;;;;;18.54;74.28;100895.88;5038269;28;20032;-44
2021/09/27 07:58:08;;;;;;;10.15;9.00;;;;;;;18.53;74.41;100895.94;5039477;28;20017;-44
2021/09/27 08:00:35;;;;;;;9.43;8.07;;;;;;;18.52;74.40;100900.44;5043764;28;21117;-45
2021/09/27 08:03:00;;;;;;;9.63;8.63;;;;;;;18.53;74.38;100907.50;5040120;28;20025;-44
2021/09/27 08:05:29;;;;;;;10.57;8.98;;;;;;;18.52;74.31;100900.44;5044057;28;20467;-44
2021/09/27 08:07:56;;;;;;;9.40;8.35;;;;;;;18.53;74.41;100904.84;5038123;28;20072;-44
2021/09/27 08:10:23;;;;;;;11.43;9.18;;;;;;;18.52;74.56;100903.09;5040695;28;20024;-43
2021/09/27 08:12:48;;;;;;;13.68;9.57;;;;;;;18.52;74.45;100900.44;5037977;28;20037;-41
2021/09/27 08:15:21;;;;;;;10.50;9.40;;;;;;;18.52;74.53;100908.44;5041427;28;20131;-41
2021/09/27 08:17:49;;;;;;;10.38;9.15;;;;;;;18.52;74.48;100902.22;5041356;28;20032;-41
2021/09/27 08:20:18;;;;;;;10.63;9.52;;;;;;;18.53;74.46;100901.28;5041776;28;20517;-42
2021/09/27 08:22:44;;;;;;;10.52;9.43;;;;;;;18.52;74.55;100900.44;5046047;28;20036;-42
2021/09/27 08:25:10;;;;;;;10.18;8.82;;;;;;;18.52;74.55;100903.09;5046737;28;20029;-42
2021/09/27 08:27:35;;;;;;;9.85;8.80;;;;;;;18.52;74.62;100903.09;5042239;28;20064;-42
2021/09/27 08:30:01;;;;;;;10.93;9.82;;;;;;;18.52;74.81;100896.88;5045916;28;20017;-42
2021/09/27 08:32:26;;;;;;;12.07;9.70;;;;;;;18.52;74.76;100891.53;5046717;28;20025;-42
2021/09/27 08:34:53;;;;;;;10.77;9.68;;;;;;;18.52;74.67;100902.22;5038490;28;20033;-43
2021/09/27 08:37:22;;;;;;;10.63;9.18;;;;;;;18.52;74.58;100905.78;5043266;28;20029;-43
2021/09/27 08:39:48;;;;;;;11.25;9.65;;;;;;;18.52;74.57;100897.75;5038012;28;20044;-43
2021/09/27 08:42:22;;;;;;;10.93;8.98;;;;;;;18.52;74.61;100902.22;5049375;28;20541;-43
2021/09/27 08:45:21;;;;;;;10.45;9.30;;;;;;;18.51;74.78;100898.66;5047952;28;20025;-43
2021/09/27 08:48:16;;;;;;;11.25;10.13;;;;;;;18.51;74.83;100904.00;5033449;28;20079;-41
2021/09/27 08:50:44;;;;;;;12.25;9.65;;;;;;;18.50;74.96;100899.63;5044819;28;20487;-41
2021/09/27 08:53:22;;;;;;;10.50;9.50;;;;;;;18.51;74.90;100900.50;5046468;28;20090;-41
2021/09/27 08:55:49;;;;;;;10.35;9.27;;;;;;;18.51;74.81;100905.84;5042504;28;20025;-42
2021/09/27 08:58:35;;;;;;;10.68;9.52;;;;;;;18.50;74.95;100904.09;5040328;28;20360;-43
2021/09/27 09:01:11;;;;;;;12.95;10.55;;;;;;;18.51;74.86;100903.16;5039661;28;20030;-41
2021/09/27 09:03:55;;;;;;;11.60;10.10;;;;;;;18.50;74.92;100904.94;5036820;28;20164;-41
2021/09/27 09:06:29;;;;;;;11.02;9.93;;;;;;;18.51;74.93;100912.03;5040551;28;20028;-41
2021/09/27 09:09:21;;;;;;;10.75;9.68;;;;;;;18.51;74.79;100906.69;5039199;28;20040;-42
2021/09/27 09:12:04;;;;;;;12.93;10.60;;;;;;;18.51;75.14;100903.16;5043177;28;20430;-42
2021/09/27 09:14:44;;;;;;;11.40;8.88;;;;;;;18.49;75.12;100905.00;5044639;28;20066;-40
2021/09/27 09:17:32;;;;;;;10.77;9.68;;;;;;;18.50;75.15;100902.28;5046320;28;20402;-43
2021/09/27 09:19:59;;;;;;;11.65;10.30;;;;;;;18.49;75.16;100900.56;5035477;28;20022;-43
2021/09/27 09:22:32;;;;;;;12.15;10.18;;;;;;;18.50;75.06;100896.94;5041174;28;20060;-42
2021/09/27 09:24:57;;;;;;;11.88;9.93;;;;;;;18.50;75.40;100898.75;5035763;28;20075;-45
2021/09/27 09:27:24;;;;;;;12.68;10.15;;;;;;;18.50;75.14;100894.28;5041183;28;20032;-44
2021/09/27 09:29:49;;;;;;;13.30;10.05;;;;;;;18.50;75.21;100902.28;5035107;28;20021;-45
2021/09/27 09:32:28;;;;;;;14.73;10.57;;;;;;;18.51;75.06;100903.16;5037712;28;20029;-42
2021/09/27 09:35:17;;;;;;;9.88;8.68;;;;;;;18.51;75.29;100898.66;5042705;28;20041;-44
2021/09/27 09:37:50;;;;;;;12.30;9.57;;;;;;;18.51;75.21;100889.81;5046834;28;20060;-44
2021/09/27 09:40:28;;;;;;;11.93;9.98;;;;;;;18.50;75.21;100899.63;5041540;28;20017;-44
2021/09/27 09:43:04;;;;;;;11.85;9.57;;;;;;;18.50;75.28;100898.75;5041697;28;20036;-43
2021/09/27 09:45:34;;;;;;;11.32;10.15;;;;;;;18.51;75.32;100901.34;5043085;28;20053;-44
2021/09/27 09:48:15;;;;;;;10.98;9.63;;;;;;;18.51;75.49;100896.00;5042552;28;20024;-43
2021/09/27 09:50:42;;;;;;;13.57;10.52;;;;;;;18.50;75.50;100899.63;5044796;28;20760;-44
2021/09/27 09:53:33;;;;;;;12.13;10.55;;;;;;;18.51;75.44;100895.16;5046265;28;20445;-42
2021/09/27 09:56:28;;;;;;;11.27;10.02;;;;;;;18.50;75.40;100898.75;5043312;28;20025;-44
2021/09/27 09:58:53;;;;;;;12.57;10.75;;;;;;;18.50;75.53;100894.28;5031782;28;20046;-44
2021/09/27 10:01:27;;;;;;;13.55;10.00;;;;;;;18.50;75.49;100891.59;5042111;28;20025;-44
2021/09/27 10:04:04;;;;;;;9.77;8.75;;;;;;;18.50;75.54;100891.59;5039535;28;20060;-44
2021/09/27 10:06:55;;;;;;;12.88;11.35;;;;;;;18.51;75.63;100895.16;5042845;28;20024;-42
2021/09/27 10:09:36;;;;;;;11.38;9.35;;;;;;;18.51;75.65;100890.66;5044797;28;20036;-43
2021/09/27 10:12:06;;;;;;;;;;;;;;;18.51;75.45;100888.00;5040138;28;20087;-42
2021/09/27 10:14:36;;;;;;;11.88;10.70;;;;;;;18.50;75.78;100885.41;5042841;28;19912;-40
2021/09/27 10:17:29;;;;;;;12.45;11.07;;;;;;;18.50;75.82;100894.28;5038754;28;20552;-40
2021/09/27 10:20:23;;;;;;;12.23;10.77;;;;;;;18.50;75.86;100883.59;5037978;28;20033;-42
2021/09/27 10:22:57;;;;;;;12.60;10.60;;;;;;;18.49;76.01;100884.53;5038314;28;20123;-42
2021/09/27 10:25:41;;;;;;;13.07;11.05;;;;;;;18.49;75.75;100883.66;5040276;28;20053;-43
2021/09/27 10:28:10;;;;;;;12.27;10.98;;;;;;;18.50;75.89;100886.25;5036161;28;20359;-43
2021/09/27 10:30:43;;;;;;;12.73;11.38;;;;;;;18.49;75.97;100876.50;5035696;28;20025;-43
2021/09/27 10:33:16;;;;;;;11.93;10.50;;;;;;;18.51;76.05;100882.66;5035740;28;20479;-41
2021/09/27 10:35:54;;;;;;;12.32;10.93;;;;;;;18.51;76.00;100876.47;5038086;28;20033;-42
2021/09/27 10:38:48;;;;;;;11.85;9.95;;;;;;;18.50;76.09;100886.25;5043485;28;20025;-42
2021/09/27 10:41:22;;;;;;;12.30;10.95;;;;;;;18.52;75.93;100883.53;5044100;28;20108;-42
2021/09/27 10:43:49;;;;;;;12.68;10.68;;;;;;;18.50;75.89;100878.25;5041264;28;20451;-42
2021/09/27 10:46:17;;;;;;;12.10;10.68;;;;;;;18.51;75.96;100879.13;5038952;28;20017;-42
2021/09/27 10:48:47;;;;;;;14.18;11.27;;;;;;;18.52;76.22;100881.75;5041449;28;20550;-42
2021/09/27 10:51:14;;;;;;;13.18;11.05;;;;;;;18.53;76.03;100882.59;5041472;28;20048;-42
2021/09/27 10:53:56;;;;;;;11.32;10.13;;;;;;;18.52;76.12;100879.06;5043996;28;20099;-42
2021/09/27 10:56:33;;;;;;;13.20;10.65;;;;;;;18.53;75.96;100883.47;5042584;28;20033;-42
2021/09/27 10:59:02;;;;;;;12.73;10.77;;;;;;;18.54;76.01;100881.69;5040500;28;20033;-42
2021/09/27 11:01:50;;;;;;;12.65;10.80;;;;;;;18.55;76.22;100881.63;5049095;28;21150;-44
2021/09/27 11:04:19;;;;;;;11.52;10.23;;;;;;;18.55;76.20;100878.06;5040890;28;20106;-44
2021/09/27 11:06:51;;;;;;;12.80;11.10;;;;;;;18.54;76.20;100874.53;5041066;28;20017;-42
2021/09/27 11:09:27;;;;;;;12.00;10.80;;;;;;;18.55;76.28;100876.28;5035096;28;20115;-42
2021/09/27 11:12:07;;;;;;;12.70;11.40;;;;;;;18.56;76.38;100878.03;5041997;28;20032;-44
2021/09/27 11:14:36;;;;;;;13.95;11.52;;;;;;;18.57;76.42;100866.41;5044617;28;20038;-44
2021/09/27 11:17:07;;;;;;;13.32;12.02;;;;;;;18.57;76.49;100873.53;5046339;28;20028;-44
2021/09/27 11:19:32;;;;;;;;;;;;;;;18.58;76.28;100865.44;5044538;28;20039;-44
2021/09/27 11:22:20;;;;;;;13.27;11.82;;;;;;;18.58;76.52;100876.13;5046517;28;19913;-44
2021/09/27 11:24:50;;;;;;;12.30;10.95;;;;;;;18.58;76.62;100865.44;5023506;28;20091;-44
2021/09/27 11:27:16;;;;;;;15.38;13.15;;;;;;;18.59;76.62;100867.22;5040415;28;20391;-44
2021/09/27 11:29:49;;;;;;;14.50;12.30;;;;;;;18.59;76.87;100867.22;5040132;28;20471;-45
2021/09/27 11:32:24;;;;;;;13.55;11.73;;;;;;;18.61;76.89;100874.28;5044429;28;20044;-43
2021/09/27 11:35:16;;;;;;;16.30;12.75;;;;;;;18.61;76.70;100874.28;5042507;28;20021;-45
2021/09/27 11:37:41;;;;;;;;;;;;;;;18.60;76.60;100865.41;5044758;28;20067;-44
2021/09/27 11:40:06;;;;;;;13.82;12.07;;;;;;;18.60;76.97;100870.75;5037913;28;19956;-44
2021/09/27 11:42:49;;;;;;;15.80;13.17;;;;;;;18.59;76.99;100864.53;5035744;28;20029;-44
2021/09/27 11:45:43;;;;;;;16.20;14.48;;;;;;;18.61;76.90;100869.84;5042710;28;20061;-42
2021/09/27 11:48:20;;;;;;;15.65;13.48;;;;;;;18.62;77.12;100865.34;5038365;28;20045;-41
2021/09/27 11:51:11;;;;;;;14.73;12.52;;;;;;;18.62;77.22;100868.91;5043104;28;20052;-42
2021/09/27 11:54:17;;;;;;;16.35;13.50;;;;;;;18.62;77.13;100868.00;5040628;28;20033;-41
2021/09/27 11:57:16;;;;;;;16.35;13.52;;;;;;;18.63;77.15;100861.72;5044770;28;20414;-40
2021/09/27 11:59:54;;;;;;;15.73;13.50;;;;;;;18.63;77.00;100862.59;5042215;28;20383;-40
2021/09/27 12:02:35;;;;;;;16.20;13.23;;;;;;;18.64;77.12;100863.50;5046107;28;20036;-40
2021/09/27 12:05:19;;;;;;;15.32;13.32;;;;;;;18.64;77.06;100858.16;5039616;28;20018;-40